Floradale, Pennsylvania
Current Conditions -  °F | °C
As of 3:53 AM on Sunday 23 Nov 2014 (Local Time) from KRYT Reporting Station
Clear Clear  
Wind Chill: 40°   Ceiling: Unl
Heat Index: 40°   Visibility: 10mi
Dew Point: 19°   Wind: 3mph
Humidity: 43%   Direction: 230°SW
Pressure: 30.13"   Gusts: NA
Location:  39.942°N, 77.3061°W
Report Text: KRYT 230853Z AUTO 23003KT 10SM CLR 04/M07 A3013 RMK AO2 SLP213 T00441072 58008 $
Loading
Personal Weather Stations






























Interactive Weather Map New forecast layout! Learn more

10-Day Weather Forecast

Advertisements
Track Severe Weather on mobile